createdAt,value
2022-10-06T00:02:20.308Z,100871.47
2022-10-06T00:04:51.016Z,100869.69
2022-10-06T00:07:20.534Z,100878.56
2022-10-06T00:09:49.616Z,100883.91
2022-10-06T00:12:18.810Z,100877.69
2022-10-06T00:14:47.942Z,100879.41
2022-10-06T00:17:17.014Z,100873.22
2022-10-06T00:19:46.209Z,100868.75
2022-10-06T00:22:16.696Z,100877.56
2022-10-06T00:24:45.859Z,100882.06
2022-10-06T00:27:15.124Z,100879.38
2022-10-06T00:29:44.164Z,100875.84
2022-10-06T00:32:13.174Z,100877.56
2022-10-06T00:34:44.148Z,100866.88
2022-10-06T00:37:13.240Z,100863.31
2022-10-06T00:39:44.041Z,100866.81
2022-10-06T00:42:23.844Z,100870.31
2022-10-06T00:44:54.909Z,100875.59
2022-10-06T00:47:25.821Z,100871.94
2022-10-06T00:49:56.767Z,100871.06
2022-10-06T00:52:30.700Z,100872.78
2022-10-06T00:55:04.403Z,100876.31
2022-10-06T00:57:37.339Z,100871.88
2022-10-06T01:00:08.087Z,100872.72
2022-10-06T01:02:42.622Z,100870.09
2022-10-06T01:05:16.477Z,100877.22
2022-10-06T01:07:47.290Z,100866.56
2022-10-06T01:10:18.010Z,100857.72
2022-10-06T01:12:48.118Z,100857.75
2022-10-06T01:15:17.807Z,100862.22
2022-10-06T01:17:50.850Z,100851.59
2022-10-06T01:20:22.971Z,100848.09
2022-10-06T01:22:58.425Z,100852.59
2022-10-06T01:25:28.636Z,100859.72
2022-10-06T01:27:58.449Z,100859.72
2022-10-06T01:30:33.675Z,100860.59
2022-10-06T01:33:02.818Z,100851.78
2022-10-06T01:35:32.063Z,100858.00
2022-10-06T01:38:03.570Z,100865.06
2022-10-06T01:40:33.301Z,100865.94
2022-10-06T01:43:03.775Z,100867.69
2022-10-06T01:45:33.005Z,100863.28
2022-10-06T01:48:02.189Z,100858.81
2022-10-06T01:50:32.774Z,100861.47
2022-10-06T01:53:03.308Z,100857.03
2022-10-06T01:55:32.632Z,100853.47
2022-10-06T01:58:02.337Z,100856.16
2022-10-06T02:00:31.522Z,100849.88
2022-10-06T02:03:00.754Z,100852.53
2022-10-06T02:05:30.888Z,100856.00
2022-10-06T02:08:00.182Z,100861.22
2022-10-06T02:10:31.498Z,100856.63
2022-10-06T02:13:01.627Z,100857.38
2022-10-06T02:15:33.574Z,100861.63
2022-10-06T02:18:02.671Z,100857.88
2022-10-06T02:20:31.891Z,100863.88
2022-10-06T02:23:01.162Z,100854.00
2022-10-06T02:25:31.608Z,100848.44
2022-10-06T02:28:01.839Z,100852.81
2022-10-06T02:31:17.329Z,100859.66
2022-10-06T02:33:48.364Z,100860.50
2022-10-06T02:36:20.150Z,100860.41
2022-10-06T02:38:49.528Z,100872.72
2022-10-06T02:41:20.253Z,100877.97
2022-10-06T02:43:49.459Z,100878.72
2022-10-06T02:46:19.004Z,100871.47
2022-10-06T02:48:51.952Z,100875.78
2022-10-06T02:51:22.608Z,100872.03
2022-10-06T02:53:53.166Z,100874.56
2022-10-06T02:56:25.370Z,100869.09
2022-10-06T02:58:55.646Z,100862.72
2022-10-06T03:01:31.207Z,100874.19
2022-10-06T03:04:04.024Z,100873.16
2022-10-06T03:06:33.700Z,100874.72
2022-10-06T03:09:18.911Z,100883.47
2022-10-06T03:11:49.627Z,100887.78
2022-10-06T03:14:32.363Z,100883.09
2022-10-06T03:17:02.041Z,100881.06
2022-10-06T03:19:32.208Z,100879.09
2022-10-06T03:22:01.616Z,100878.91
2022-10-06T03:24:40.109Z,100877.78
2022-10-06T03:27:11.287Z,100885.56
2022-10-06T03:29:40.637Z,100882.72
2022-10-06T03:32:10.340Z,100883.41
2022-10-06T03:34:40.084Z,100889.47
2022-10-06T03:37:13.059Z,100887.50
2022-10-06T03:39:42.122Z,100895.34
2022-10-06T03:42:12.988Z,100904.94
2022-10-06T03:44:42.276Z,100906.44
2022-10-06T03:47:16.790Z,100907.13
2022-10-06T03:49:46.651Z,100910.56
2022-10-06T03:52:20.197Z,100909.38
2022-10-06T03:54:53.058Z,100903.75
2022-10-06T03:57:23.462Z,100918.56
2022-10-06T03:59:53.068Z,100919.19
2022-10-06T04:02:22.290Z,100922.44
2022-10-06T04:04:51.284Z,100916.75
2022-10-06T04:07:20.536Z,100924.44
2022-10-06T04:09:49.961Z,100915.25
2022-10-06T04:12:19.912Z,100915.94
2022-10-06T04:14:50.667Z,100917.47
2022-10-06T04:17:20.605Z,100920.78
2022-10-06T04:19:49.744Z,100931.16
2022-10-06T04:22:19.222Z,100932.66
2022-10-06T04:24:50.608Z,100927.84
2022-10-06T04:27:36.336Z,100936.50
2022-10-06T04:30:18.186Z,100933.53
2022-10-06T04:32:47.443Z,100939.59
2022-10-06T04:35:16.721Z,100950.91
2022-10-06T04:37:46.638Z,100938.16
2022-10-06T04:40:16.652Z,100946.00
2022-10-06T04:42:45.670Z,100947.53
2022-10-06T04:45:19.290Z,100948.22
2022-10-06T04:47:51.045Z,100949.81
2022-10-06T04:50:20.755Z,100955.06
2022-10-06T04:53:07.803Z,100960.16
2022-10-06T04:55:37.037Z,100943.06
2022-10-06T04:58:06.439Z,100936.53
2022-10-06T05:00:37.477Z,100942.63
2022-10-06T05:03:06.830Z,100962.16
2022-10-06T05:05:35.975Z,100955.72
2022-10-06T05:08:05.199Z,100959.19
2022-10-06T05:10:34.161Z,100956.31
2022-10-06T05:13:03.953Z,100962.53
2022-10-06T05:15:33.081Z,100968.72
2022-10-06T05:18:03.668Z,100976.59
2022-10-06T05:20:32.665Z,100979.22
2022-10-06T05:23:08.855Z,100975.59
2022-10-06T05:25:38.387Z,100983.56
2022-10-06T05:28:08.313Z,100970.09
2022-10-06T05:30:37.476Z,100986.06
2022-10-06T05:33:10.990Z,100981.56
2022-10-06T05:35:41.040Z,100980.59
2022-10-06T05:38:11.770Z,100993.09
2022-10-06T05:40:40.900Z,101001.94
2022-10-06T05:43:10.109Z,101011.75
2022-10-06T05:45:39.151Z,101023.34
2022-10-06T05:48:09.991Z,101014.44
2022-10-06T05:50:39.073Z,101025.09
2022-10-06T05:53:08.167Z,101031.28
2022-10-06T05:55:37.371Z,101033.91
2022-10-06T05:58:06.417Z,101043.72
2022-10-06T06:00:35.514Z,101052.50
2022-10-06T06:03:04.913Z,101059.53
2022-10-06T06:05:35.332Z,101053.09
2022-10-06T06:08:04.625Z,101072.56
2022-10-06T06:10:34.757Z,101074.97
2022-10-06T06:13:03.749Z,101080.06
2022-10-06T06:16:01.595Z,101083.25
2022-10-06T06:18:32.901Z,101081.94
2022-10-06T06:21:05.523Z,101088.72
2022-10-06T06:23:37.208Z,101090.09
2022-10-06T06:26:08.303Z,101089.59
2022-10-06T06:28:41.550Z,101104.31
2022-10-06T06:31:17.588Z,101111.03
2022-10-06T06:33:51.710Z,101111.38
2022-10-06T06:36:26.034Z,101115.38
2022-10-06T06:38:57.121Z,101123.06
2022-10-06T06:41:28.621Z,101136.94
2022-10-06T06:44:20.937Z,101136.50
2022-10-06T06:46:56.316Z,101142.44
2022-10-06T06:49:25.790Z,101154.56
2022-10-06T06:52:04.687Z,101153.47
2022-10-06T06:54:36.273Z,101161.09
2022-10-06T06:57:12.469Z,101159.06
2022-10-06T06:59:41.920Z,101155.16
2022-10-06T07:02:13.708Z,101158.41
2022-10-06T07:04:46.175Z,101161.50
2022-10-06T07:07:21.097Z,101166.56
2022-10-06T07:09:50.249Z,101172.59
2022-10-06T07:12:22.652Z,101177.66
2022-10-06T07:15:13.088Z,101178.38
2022-10-06T07:18:02.828Z,101185.34
2022-10-06T07:20:50.431Z,101178.75
2022-10-06T07:23:39.981Z,101184.84
2022-10-06T07:26:14.000Z,101184.72
2022-10-06T07:28:44.624Z,101186.38
2022-10-06T07:31:17.642Z,101199.63
2022-10-06T07:33:48.489Z,101192.34
2022-10-06T07:36:18.464Z,101193.75
2022-10-06T07:38:49.405Z,101194.53
2022-10-06T07:41:20.241Z,101204.22
2022-10-06T07:43:54.775Z,101216.59
2022-10-06T07:46:25.367Z,101224.94
2022-10-06T07:49:21.421Z,101221.16
2022-10-06T07:51:51.120Z,101225.44
2022-10-06T07:54:26.570Z,101239.59
2022-10-06T07:57:35.429Z,101244.56
2022-10-06T08:00:07.442Z,101256.09
2022-10-06T08:02:43.521Z,101264.09
2022-10-06T08:05:12.311Z,101269.41
2022-10-06T08:07:41.618Z,101267.66
2022-10-06T08:10:12.386Z,101282.03
2022-10-06T08:12:41.838Z,101276.78
2022-10-06T08:15:13.746Z,101288.59
2022-10-06T08:17:43.086Z,101279.72
2022-10-06T08:20:18.389Z,101290.59
2022-10-06T08:22:49.676Z,101301.47
2022-10-06T08:25:20.416Z,101306.78
2022-10-06T08:27:53.403Z,101296.78
2022-10-06T08:30:27.227Z,101327.25
2022-10-06T08:32:58.489Z,101321.63
2022-10-06T08:35:29.086Z,101330.41
2022-10-06T08:37:58.364Z,101329.53
2022-10-06T08:40:29.333Z,101342.78
2022-10-06T08:43:02.380Z,101338.94
2022-10-06T08:45:38.585Z,101348.81
2022-10-06T08:48:14.363Z,101347.84
2022-10-06T08:50:54.155Z,101365.78
2022-10-06T08:53:29.388Z,101366.81
2022-10-06T08:56:07.503Z,101375.88
2022-10-06T08:58:47.496Z,101376.91
2022-10-06T09:01:19.832Z,101375.13
2022-10-06T09:03:52.343Z,101379.75
2022-10-06T09:06:38.173Z,101387.75
2022-10-06T09:09:18.513Z,101386.97
2022-10-06T09:12:00.088Z,101385.78
2022-10-06T09:14:37.597Z,101394.66
2022-10-06T09:17:12.034Z,101405.22
2022-10-06T09:19:46.101Z,101398.53
2022-10-06T09:22:20.735Z,101402.56
2022-10-06T09:24:55.159Z,101403.84
2022-10-06T09:27:29.822Z,101430.34
2022-10-06T09:29:59.878Z,101430.91
2022-10-06T09:32:31.897Z,101434.25
2022-10-06T09:35:02.707Z,101436.69
2022-10-06T09:37:53.767Z,101443.78
2022-10-06T09:40:37.535Z,101451.69
2022-10-06T09:43:18.418Z,101453.50
2022-10-06T09:45:47.843Z,101474.25
2022-10-06T09:48:24.999Z,101477.91
2022-10-06T09:51:10.219Z,101474.25
2022-10-06T09:53:39.973Z,101487.81
2022-10-06T09:56:18.817Z,101502.13
2022-10-06T09:58:58.139Z,101511.97
2022-10-06T10:01:29.514Z,101509.28
2022-10-06T10:04:19.291Z,101523.66
2022-10-06T10:06:49.176Z,101520.53
2022-10-06T10:09:24.956Z,101523.88
2022-10-06T10:12:28.734Z,101530.88
2022-10-06T10:15:03.590Z,101533.38
2022-10-06T10:17:44.115Z,101541.47
2022-10-06T10:20:30.215Z,101571.84
2022-10-06T10:23:01.621Z,101562.63
2022-10-06T10:25:59.652Z,101559.75
2022-10-06T10:28:52.271Z,101573.97
2022-10-06T10:31:32.170Z,101571.19
2022-10-06T10:34:23.959Z,101566.66
2022-10-06T10:36:57.890Z,101585.41
2022-10-06T10:39:34.757Z,101582.53
2022-10-06T10:42:13.115Z,101581.50
2022-10-06T10:44:51.024Z,101581.41
2022-10-06T10:47:27.508Z,101599.28
2022-10-06T10:50:04.052Z,101596.50
2022-10-06T10:52:41.416Z,101591.97
2022-10-06T10:55:23.306Z,101599.94
2022-10-06T10:57:54.318Z,101605.16
2022-10-06T11:00:28.202Z,101610.41
2022-10-06T11:03:02.291Z,101614.88
2022-10-06T11:05:45.156Z,101624.72
2022-10-06T11:08:25.327Z,101624.72
2022-10-06T11:10:59.075Z,101623.03
2022-10-06T11:13:37.399Z,101629.88
2022-10-06T11:16:19.746Z,101630.53
2022-10-06T11:19:15.282Z,101637.75
2022-10-06T11:21:52.078Z,101654.56
2022-10-06T11:24:32.280Z,101640.84
2022-10-06T11:27:28.624Z,101648.81
2022-10-06T11:30:07.591Z,101647.03
2022-10-06T11:33:04.807Z,101651.31
2022-10-06T11:35:38.372Z,101651.25
2022-10-06T11:38:16.902Z,101647.91
2022-10-06T11:41:09.924Z,101648.91
2022-10-06T11:43:47.506Z,101662.47
2022-10-06T11:46:31.127Z,101655.50
2022-10-06T11:49:39.503Z,101649.34
2022-10-06T11:52:50.780Z,101660.41
2022-10-06T11:55:26.398Z,101667.81
2022-10-06T11:58:23.800Z,101674.34
2022-10-06T12:00:58.204Z,101680.78
2022-10-06T12:03:48.851Z,101686.44
2022-10-06T12:06:53.572Z,101689.22
2022-10-06T12:09:46.185Z,101691.19
2022-10-06T12:13:01.906Z,101685.88
2022-10-06T12:18:49.793Z,101682.47
2022-10-06T12:21:47.076Z,101694.38
2022-10-06T12:24:41.454Z,101699.78
2022-10-06T12:27:33.375Z,101712.50
2022-10-06T12:30:16.909Z,101714.41
2022-10-06T12:32:51.197Z,101719.00
2022-10-06T12:35:26.544Z,101711.13
2022-10-06T12:37:58.349Z,101720.44
2022-10-06T12:40:46.697Z,101719.97
2022-10-06T12:43:33.226Z,101737.50
2022-10-06T12:46:07.723Z,101734.13
2022-10-06T12:48:42.783Z,101730.88
2022-10-06T12:51:25.304Z,101744.59
2022-10-06T12:54:04.146Z,101738.69
2022-10-06T12:56:35.192Z,101737.97
2022-10-06T12:59:21.404Z,101745.28
2022-10-06T13:01:54.799Z,101752.56
2022-10-06T13:04:40.579Z,101753.66
2022-10-06T13:07:19.741Z,101754.59
2022-10-06T13:09:51.137Z,101764.44
2022-10-06T13:12:29.695Z,101767.06
2022-10-06T13:15:23.474Z,101759.66
2022-10-06T13:17:57.472Z,101755.78
2022-10-06T13:20:37.954Z,101760.56
2022-10-06T13:23:27.171Z,101770.50
2022-10-06T13:25:58.877Z,101777.66
2022-10-06T13:28:46.869Z,101782.59
2022-10-06T13:31:21.549Z,101790.25
2022-10-06T13:33:56.444Z,101793.59
2022-10-06T13:36:26.172Z,101779.47
2022-10-06T13:38:55.556Z,101793.81
2022-10-06T13:41:29.469Z,101797.75
2022-10-06T13:44:02.438Z,101798.03
2022-10-06T13:46:33.783Z,101801.75
2022-10-06T13:49:15.095Z,101799.88
2022-10-06T13:51:49.386Z,101804.13
2022-10-06T13:54:26.421Z,101806.50
2022-10-06T13:56:55.905Z,101812.44
2022-10-06T13:59:32.372Z,101816.63
2022-10-06T14:02:21.554Z,101820.28
2022-10-06T14:05:24.480Z,101825.75
2022-10-06T14:07:58.013Z,101826.19
2022-10-06T14:10:32.625Z,101833.19
2022-10-06T14:13:03.081Z,101826.72
2022-10-06T14:15:40.222Z,101835.00
2022-10-06T14:18:18.349Z,101830.94
2022-10-06T14:20:49.493Z,101844.38
2022-10-06T14:23:41.516Z,101833.72
2022-10-06T14:26:13.011Z,101839.75
2022-10-06T14:28:47.129Z,101850.19
2022-10-06T14:31:17.042Z,101849.75
2022-10-06T14:33:47.065Z,101849.34
2022-10-06T14:36:20.085Z,101847.59
2022-10-06T14:38:52.544Z,101853.50
2022-10-06T14:41:27.661Z,101854.03
2022-10-06T14:43:58.871Z,101856.09
2022-10-06T14:46:28.108Z,101855.47
2022-10-06T14:48:57.682Z,101863.19
2022-10-06T14:51:29.269Z,101863.84
2022-10-06T14:54:01.973Z,101864.81
2022-10-06T14:56:33.594Z,101875.09
2022-10-06T14:59:05.893Z,101871.91
2022-10-06T15:01:36.812Z,101876.38
2022-10-06T15:04:08.837Z,101881.34
2022-10-06T15:06:55.442Z,101887.13
2022-10-06T15:09:26.465Z,101894.44
2022-10-06T15:11:56.214Z,101901.28
2022-10-06T15:14:25.630Z,101906.13
2022-10-06T15:16:54.788Z,101906.53
2022-10-06T15:19:23.819Z,101916.44
2022-10-06T15:21:53.015Z,101910.72
2022-10-06T15:24:22.224Z,101908.22
2022-10-06T15:27:10.447Z,101913.63
2022-10-06T15:29:39.749Z,101919.66
2022-10-06T15:32:09.513Z,101927.25
2022-10-06T15:34:38.699Z,101922.25
2022-10-06T15:37:08.521Z,101930.03
2022-10-06T15:39:38.484Z,101930.78
2022-10-06T15:42:09.638Z,101940.09
2022-10-06T15:44:39.236Z,101931.28
2022-10-06T15:47:08.777Z,101938.78
2022-10-06T15:49:41.628Z,101946.16
2022-10-06T15:52:13.650Z,101948.16
2022-10-06T15:54:43.819Z,101952.72
2022-10-06T15:57:20.675Z,101960.84
2022-10-06T15:59:50.400Z,101966.25
2022-10-06T16:02:20.661Z,101970.69
2022-10-06T16:05:28.100Z,101963.38
2022-10-06T16:07:57.251Z,101972.31
2022-10-06T16:10:26.248Z,101971.34
2022-10-06T16:12:56.616Z,101988.31
2022-10-06T16:15:25.773Z,101977.28
2022-10-06T16:17:54.858Z,101982.34
2022-10-06T16:20:23.845Z,101993.66
2022-10-06T16:22:53.060Z,101994.28
2022-10-06T16:25:22.028Z,102001.09
2022-10-06T16:27:51.496Z,102011.41
2022-10-06T16:30:22.075Z,102013.63
2022-10-06T16:32:51.163Z,102017.63
2022-10-06T16:35:20.225Z,102022.53
2022-10-06T16:37:50.064Z,102018.47
2022-10-06T16:40:19.275Z,102023.44
2022-10-06T16:42:48.428Z,102026.53
2022-10-06T16:45:17.593Z,102022.41
2022-10-06T16:47:48.794Z,102024.50
2022-10-06T16:50:18.338Z,102023.00
2022-10-06T16:52:47.688Z,102026.91
2022-10-06T16:55:17.250Z,102027.19
2022-10-06T16:57:46.211Z,102029.16
2022-10-06T17:00:16.597Z,102032.06
2022-10-06T17:02:49.423Z,102045.03
2022-10-06T17:05:18.664Z,102040.78
2022-10-06T17:07:47.879Z,102045.50
2022-10-06T17:10:20.488Z,102052.91
2022-10-06T17:12:50.496Z,102052.25
2022-10-06T17:15:19.606Z,102045.34
2022-10-06T17:17:50.025Z,102059.00
2022-10-06T17:20:19.367Z,102050.28
2022-10-06T17:22:48.636Z,102057.63
2022-10-06T17:25:18.387Z,102060.59
2022-10-06T17:27:47.716Z,102053.63
2022-10-06T17:30:16.877Z,102058.31
2022-10-06T17:32:47.083Z,102060.38
2022-10-06T17:35:19.854Z,102065.00
2022-10-06T17:37:50.269Z,102069.69
2022-10-06T17:40:19.884Z,102068.94
2022-10-06T17:42:50.258Z,102070.00
2022-10-06T17:45:21.443Z,102065.69
2022-10-06T17:47:51.839Z,102066.72
2022-10-06T17:50:22.181Z,102074.94
2022-10-06T17:52:52.728Z,102078.66
2022-10-06T17:55:22.617Z,102077.03
2022-10-06T17:57:51.972Z,102077.25
2022-10-06T18:00:21.969Z,102079.13
2022-10-06T18:03:00.349Z,102074.00
2022-10-06T18:05:33.144Z,102084.00
2022-10-06T18:08:05.426Z,102073.44
2022-10-06T18:10:52.734Z,102081.63
2022-10-06T18:13:23.554Z,102080.00
2022-10-06T18:15:52.703Z,102090.81
2022-10-06T18:18:25.341Z,102084.75
2022-10-06T18:21:03.863Z,102083.09
2022-10-06T18:23:36.860Z,102082.34
2022-10-06T18:26:06.589Z,102087.81
2022-10-06T18:28:35.628Z,102093.34
2022-10-06T18:31:04.675Z,102095.28
2022-10-06T18:36:25.301Z,102107.16
2022-10-06T18:38:55.837Z,102107.28
2022-10-06T18:41:27.376Z,102106.50
2022-10-06T18:43:57.082Z,102108.41
2022-10-06T18:46:43.565Z,102104.09
2022-10-06T18:49:15.838Z,102110.44
2022-10-06T18:51:51.075Z,102109.72
2022-10-06T18:54:24.010Z,102109.91
2022-10-06T18:56:53.119Z,102115.34
2022-10-06T18:59:26.204Z,102121.69
2022-10-06T19:01:57.890Z,102113.78
2022-10-06T19:04:27.511Z,102121.06
2022-10-06T19:06:58.184Z,102118.47
2022-10-06T19:09:27.643Z,102116.78
2022-10-06T19:11:58.871Z,102112.47
2022-10-06T19:14:31.806Z,102118.78
2022-10-06T19:17:03.702Z,102121.56
2022-10-06T19:19:34.496Z,102121.69
2022-10-06T19:22:06.539Z,102124.44
2022-10-06T19:24:39.851Z,102125.44
2022-10-06T19:27:12.516Z,102128.22
2022-10-06T19:29:46.226Z,102138.06
2022-10-06T19:32:17.741Z,102129.28
2022-10-06T19:34:48.596Z,102124.91
2022-10-06T19:37:20.105Z,102127.66
2022-10-06T19:39:50.722Z,102129.50
2022-10-06T19:42:39.791Z,102140.25
2022-10-06T19:45:12.405Z,102136.81
2022-10-06T19:47:44.766Z,102142.22
2022-10-06T19:50:15.738Z,102144.97
2022-10-06T19:52:47.063Z,102166.44
2022-10-06T19:55:17.049Z,102148.66
2022-10-06T19:57:47.179Z,102157.63
2022-10-06T20:00:21.143Z,102157.69
2022-10-06T20:02:51.126Z,102153.28
2022-10-06T20:05:20.625Z,102152.47
2022-10-06T20:07:50.998Z,102155.13
2022-10-06T20:10:21.557Z,102160.47
2022-10-06T20:12:50.526Z,102150.72
2022-10-06T20:15:19.978Z,102148.94
2022-10-06T20:17:49.085Z,102161.34
2022-10-06T20:20:18.925Z,102164.91
2022-10-06T20:22:49.796Z,102161.34
2022-10-06T20:25:20.569Z,102164.88
2022-10-06T20:27:50.284Z,102163.94
2022-10-06T20:30:19.538Z,102168.41
2022-10-06T20:32:48.724Z,102166.56
2022-10-06T20:35:17.873Z,102169.25
2022-10-06T20:37:47.092Z,102165.66
2022-10-06T20:40:34.092Z,102171.88
2022-10-06T20:43:04.771Z,102164.75
2022-10-06T20:45:34.022Z,102171.84
2022-10-06T20:48:03.157Z,102169.19
2022-10-06T20:50:32.610Z,102174.53
2022-10-06T20:53:01.577Z,102174.47
2022-10-06T20:55:30.535Z,102164.66
2022-10-06T20:57:59.721Z,102176.19
2022-10-06T21:00:30.105Z,102171.75
2022-10-06T21:02:59.498Z,102169.06
2022-10-06T21:05:31.941Z,102166.38
2022-10-06T21:08:01.947Z,102171.72
2022-10-06T21:10:30.967Z,102179.78
2022-10-06T21:13:00.887Z,102182.47
2022-10-06T21:15:31.518Z,102182.47
2022-10-06T21:18:00.788Z,102183.38
2022-10-06T21:20:29.885Z,102176.25
2022-10-06T21:22:59.086Z,102178.91
2022-10-06T21:25:28.078Z,102175.34
2022-10-06T21:27:57.330Z,102176.28
2022-10-06T21:30:26.748Z,102170.03
2022-10-06T21:32:57.738Z,102178.94
2022-10-06T21:35:27.080Z,102174.53
2022-10-06T21:37:56.494Z,102173.63
2022-10-06T21:40:25.556Z,102174.53
2022-10-06T21:42:54.579Z,102175.44
2022-10-06T21:45:24.944Z,102171.00
2022-10-06T21:47:56.414Z,102175.50
2022-10-06T21:50:25.641Z,102179.97
2022-10-06T21:52:54.653Z,102175.50
2022-10-06T21:55:23.880Z,102166.63
2022-10-06T21:57:52.908Z,102177.31
2022-10-06T22:00:22.017Z,102171.06
2022-10-06T22:02:51.450Z,102170.22
2022-10-06T22:05:22.156Z,102174.63
2022-10-06T22:07:51.177Z,102173.75
2022-10-06T22:10:20.369Z,102174.63
2022-10-06T22:12:49.421Z,102185.28
2022-10-06T22:15:18.554Z,102174.59
2022-10-06T22:17:48.634Z,102175.50
2022-10-06T22:20:17.740Z,102184.38
2022-10-06T22:22:48.162Z,102174.56
2022-10-06T22:25:17.658Z,102182.59
2022-10-06T22:27:46.876Z,102187.91
2022-10-06T22:30:16.013Z,102186.16
2022-10-06T22:32:45.256Z,102181.69
2022-10-06T22:35:14.419Z,102178.13
2022-10-06T22:37:43.564Z,102176.34
2022-10-06T22:40:14.542Z,102172.81
2022-10-06T22:42:43.549Z,102170.16
2022-10-06T22:45:12.713Z,102166.56
2022-10-06T22:47:42.286Z,102177.28
2022-10-06T22:50:11.260Z,102176.38
2022-10-06T22:52:40.308Z,102171.94
2022-10-06T22:55:10.162Z,102171.03
2022-10-06T22:57:42.219Z,102170.19
2022-10-06T23:00:12.797Z,102166.63
2022-10-06T23:02:41.984Z,102161.25
2022-10-06T23:05:11.014Z,102159.50
2022-10-06T23:07:40.245Z,102163.09
2022-10-06T23:10:10.349Z,102162.19
2022-10-06T23:12:40.976Z,102166.69
2022-10-06T23:15:13.819Z,102163.16
2022-10-06T23:17:43.591Z,102157.84
2022-10-06T23:20:13.389Z,102162.28
2022-10-06T23:22:42.444Z,102162.28
2022-10-06T23:25:12.204Z,102159.66
2022-10-06T23:27:43.148Z,102167.72
2022-10-06T23:30:13.137Z,102163.25
2022-10-06T23:32:42.439Z,102163.28
2022-10-06T23:35:12.717Z,102167.75
2022-10-06T23:37:42.060Z,102167.75
2022-10-06T23:40:12.119Z,102168.66
2022-10-06T23:42:42.673Z,102161.56
2022-10-06T23:45:12.252Z,102170.47
2022-10-06T23:47:41.698Z,102161.56
2022-10-06T23:50:11.379Z,102162.50
2022-10-06T23:52:41.522Z,102166.09
2022-10-06T23:55:10.829Z,102172.34
2022-10-06T23:57:41.714Z,102171.50
